createdAt,value
2022-09-05T00:02:14.391Z,20.71
2022-09-05T00:05:22.439Z,20.57
2022-09-05T00:07:59.547Z,20.76
2022-09-05T00:11:41.471Z,20.72
2022-09-05T00:13:47.049Z,20.87
2022-09-05T00:16:30.433Z,20.85
2022-09-05T00:24:18.730Z,20.87
2022-09-05T00:24:32.508Z,20.75
2022-09-05T00:25:38.386Z,20.83
2022-09-05T00:28:35.468Z,20.76
2022-09-05T00:31:57.480Z,20.68
2022-09-05T00:35:01.397Z,20.64
2022-09-05T00:37:47.013Z,20.57
2022-09-05T00:40:31.196Z,20.59
2022-09-05T00:43:14.915Z,20.66
2022-09-05T00:46:15.509Z,20.72
2022-09-05T00:48:47.160Z,20.79
2022-09-05T00:51:38.236Z,20.81
2022-09-05T00:54:53.410Z,20.79
2022-09-05T00:57:44.397Z,20.68
2022-09-05T01:00:50.362Z,20.54
2022-09-05T01:04:14.957Z,20.38
2022-09-05T01:07:15.811Z,20.18
2022-09-05T01:09:57.161Z,19.98
2022-09-05T01:13:02.839Z,19.83
2022-09-05T01:15:43.858Z,19.74
2022-09-05T01:18:32.768Z,19.60
2022-09-05T01:21:18.624Z,19.52
2022-09-05T01:24:03.664Z,19.48
2022-09-05T01:26:57.227Z,19.40
2022-09-05T01:29:38.364Z,19.40
2022-09-05T01:32:34.090Z,19.34
2022-09-05T01:35:25.738Z,19.45
2022-09-05T01:38:07.923Z,19.51
2022-09-05T01:41:18.618Z,19.58
2022-09-05T01:44:20.523Z,19.63
2022-09-05T01:47:40.908Z,19.63
2022-09-05T01:50:44.852Z,19.62
2022-09-05T01:53:39.993Z,19.66
2022-09-05T01:56:51.556Z,19.67
2022-09-05T01:59:57.372Z,19.66
2022-09-05T02:02:50.493Z,19.66
2022-09-05T02:05:52.234Z,19.71
2022-09-05T02:08:41.713Z,19.68
2022-09-05T02:11:12.113Z,19.68
2022-09-05T02:14:24.511Z,19.77
2022-09-05T02:17:51.090Z,19.80
2022-09-05T02:20:47.613Z,19.75
2022-09-05T02:23:32.617Z,19.79
2022-09-05T02:26:15.524Z,19.75
2022-09-05T02:29:13.176Z,19.75
2022-09-05T02:32:13.639Z,19.74
2022-09-05T02:35:13.575Z,19.88
2022-09-05T02:42:46.440Z,19.99
2022-09-05T02:45:12.931Z,20.03
2022-09-05T02:45:24.095Z,20.12
2022-09-05T02:48:28.060Z,20.17
2022-09-05T02:57:28.365Z,20.18
2022-09-05T02:57:38.174Z,20.21
2022-09-05T02:58:06.976Z,20.33
2022-09-05T03:00:44.649Z,20.32
2022-09-05T03:03:50.716Z,20.36
2022-09-05T03:06:35.003Z,20.32
2022-09-05T03:09:30.151Z,20.35
2022-09-05T03:12:29.566Z,20.38
2022-09-05T03:15:23.552Z,20.38
2022-09-05T03:18:27.496Z,20.41
2022-09-05T03:21:57.104Z,20.46
2022-09-05T03:24:55.608Z,20.50
2022-09-05T03:28:03.393Z,20.41
2022-09-05T03:30:59.607Z,20.52
2022-09-05T03:33:52.134Z,20.58
2022-09-05T03:36:49.771Z,20.56
2022-09-05T03:39:54.950Z,20.60
2022-09-05T03:42:50.701Z,20.62
2022-09-05T03:45:50.064Z,20.53
2022-09-05T03:48:28.325Z,20.68
2022-09-05T03:57:06.170Z,20.55
2022-09-05T03:57:20.724Z,20.52
2022-09-05T03:57:45.180Z,20.66
2022-09-05T04:00:27.499Z,20.63
2022-09-05T04:07:48.162Z,20.64
2022-09-05T04:08:16.943Z,20.50
2022-09-05T04:08:52.637Z,20.46
2022-09-05T04:11:37.553Z,20.59
2022-09-05T04:14:21.176Z,20.48
2022-09-05T04:17:03.753Z,20.63
2022-09-05T04:19:50.041Z,20.67
2022-09-05T04:22:54.650Z,20.66
2022-09-05T04:25:34.751Z,20.70
2022-09-05T04:28:19.314Z,20.67
2022-09-05T04:30:57.046Z,20.71
2022-09-05T04:33:40.029Z,20.75
2022-09-05T04:36:29.543Z,20.75
2022-09-05T04:39:18.403Z,20.77
2022-09-05T04:42:25.419Z,20.75
2022-09-05T04:45:11.749Z,20.74
2022-09-05T04:47:52.280Z,20.72
2022-09-05T04:50:24.902Z,20.65
2022-09-05T04:53:47.038Z,20.74
2022-09-05T04:56:21.669Z,20.64
2022-09-05T05:01:08.298Z,20.67
2022-09-05T05:06:12.239Z,20.70
2022-09-05T05:06:15.113Z,20.69
2022-09-05T05:09:20.658Z,20.64
2022-09-05T05:18:03.805Z,20.52
2022-09-05T05:18:13.920Z,20.49
2022-09-05T05:18:42.489Z,20.60
2022-09-05T05:21:20.364Z,20.62
2022-09-05T05:24:10.815Z,20.51
2022-09-05T05:27:32.661Z,20.60
2022-09-05T05:30:06.700Z,20.62
2022-09-05T05:32:45.939Z,20.63
2022-09-05T05:35:28.881Z,20.52
2022-09-05T05:38:25.986Z,20.48
2022-09-05T05:41:30.834Z,20.59
2022-09-05T05:43:59.215Z,20.46
2022-09-05T05:46:39.734Z,20.52
2022-09-05T05:49:27.408Z,20.41
2022-09-05T05:52:16.540Z,20.52
2022-09-05T05:55:09.654Z,20.53
2022-09-05T05:57:57.554Z,20.57
2022-09-05T06:00:52.951Z,20.59
2022-09-05T06:04:12.414Z,20.58
2022-09-05T06:07:03.445Z,20.62
2022-09-05T06:14:50.243Z,20.64
2022-09-05T06:14:57.015Z,20.65
2022-09-05T06:17:02.042Z,20.70
2022-09-05T06:20:49.024Z,20.76
2022-09-05T06:23:39.831Z,20.79
2022-09-05T06:26:47.396Z,20.86
2022-09-05T06:29:43.971Z,20.90
2022-09-05T06:32:32.473Z,20.93
2022-09-05T06:35:31.539Z,20.97
2022-09-05T06:38:45.952Z,21.00
2022-09-05T06:41:31.933Z,21.06
2022-09-05T06:44:13.610Z,21.07
2022-09-05T06:46:54.436Z,21.08
2022-09-05T06:50:24.155Z,20.98
2022-09-05T06:53:27.187Z,21.10
2022-09-05T06:56:25.613Z,21.00
2022-09-05T06:59:21.712Z,21.16
2022-09-05T07:02:46.354Z,21.27
2022-09-05T07:05:40.044Z,21.38
2022-09-05T07:08:36.407Z,21.47
2022-09-05T07:11:35.452Z,21.54
2022-09-05T07:14:22.100Z,21.60
2022-09-05T07:17:27.278Z,21.63
2022-09-05T07:20:01.911Z,21.61
2022-09-05T07:22:47.533Z,21.66
2022-09-05T07:25:26.345Z,21.72
2022-09-05T07:28:26.296Z,21.84
2022-09-05T07:31:01.039Z,22.06
2022-09-05T07:33:31.263Z,22.18
2022-09-05T07:36:25.892Z,22.35
2022-09-05T07:39:25.114Z,22.43
2022-09-05T07:41:55.532Z,22.66
2022-09-05T07:44:40.369Z,22.78
2022-09-05T07:47:21.299Z,23.04
2022-09-05T07:50:13.990Z,23.20
2022-09-05T07:56:48.019Z,23.34
2022-09-05T07:57:09.216Z,23.45
2022-09-05T07:58:41.291Z,23.55
2022-09-05T08:01:14.507Z,23.88
2022-09-05T08:03:44.062Z,24.06
2022-09-05T08:07:01.266Z,24.13
2022-09-05T08:10:08.240Z,24.11
2022-09-05T08:12:27.882Z,24.18
2022-09-05T08:15:16.548Z,24.15
2022-09-05T08:18:13.840Z,24.23
2022-09-05T08:21:03.653Z,24.24
2022-09-05T08:24:13.997Z,24.24
2022-09-05T08:26:50.818Z,24.13
2022-09-05T08:29:51.261Z,24.06
2022-09-05T08:32:46.423Z,24.07
2022-09-05T08:35:20.001Z,24.17
2022-09-05T08:37:50.250Z,24.13
2022-09-05T08:41:42.990Z,24.19
2022-09-05T08:46:36.246Z,24.14
2022-09-05T08:47:45.719Z,24.22
2022-09-05T08:50:28.531Z,24.27
2022-09-05T08:53:28.369Z,24.34
2022-09-05T08:56:26.170Z,24.44
2022-09-05T08:59:27.885Z,24.47
2022-09-05T09:02:46.660Z,24.69
2022-09-05T09:06:13.969Z,24.83
2022-09-05T09:09:13.211Z,24.97
2022-09-05T09:12:06.783Z,25.03
2022-09-05T09:14:40.801Z,24.98
2022-09-05T09:17:26.682Z,24.97
2022-09-05T09:20:06.193Z,24.98
2022-09-05T09:22:42.397Z,25.01
2022-09-05T09:25:26.533Z,25.00
2022-09-05T09:28:50.031Z,25.22
2022-09-05T09:31:50.152Z,25.32
2022-09-05T09:34:26.437Z,25.41
2022-09-05T09:37:49.534Z,25.50
2022-09-05T09:41:00.672Z,25.58
2022-09-05T09:44:08.129Z,25.66
2022-09-05T09:46:47.940Z,25.57
2022-09-05T09:49:29.673Z,25.72
2022-09-05T09:52:49.216Z,25.73
2022-09-05T09:55:40.823Z,25.75
2022-09-05T09:58:38.449Z,25.81
2022-09-05T10:01:35.267Z,25.82
2022-09-05T10:07:35.459Z,25.84
2022-09-05T10:10:49.906Z,25.93
2022-09-05T10:11:51.938Z,25.94
2022-09-05T10:14:24.219Z,25.94
2022-09-05T10:18:01.878Z,25.93
2022-09-05T10:21:16.584Z,25.83
2022-09-05T10:24:10.050Z,25.86
2022-09-05T10:27:09.968Z,25.94
2022-09-05T10:30:06.825Z,25.93
2022-09-05T10:35:10.209Z,25.98
2022-09-05T10:35:41.968Z,25.93
2022-09-05T10:38:21.528Z,25.93
2022-09-05T10:41:20.149Z,26.05
2022-09-05T10:44:04.564Z,25.95
2022-09-05T10:46:55.894Z,25.95
2022-09-05T10:49:40.462Z,26.11
2022-09-05T10:52:18.671Z,26.11
2022-09-05T10:55:13.940Z,26.09
2022-09-05T10:57:51.712Z,26.20
2022-09-05T11:02:20.977Z,26.24
2022-09-05T11:04:00.908Z,26.17
2022-09-05T11:06:53.823Z,26.31
2022-09-05T11:09:46.623Z,26.32
2022-09-05T11:12:57.522Z,26.52
2022-09-05T11:15:47.782Z,26.65
2022-09-05T11:18:59.221Z,26.85
2022-09-05T11:21:47.989Z,27.01
2022-09-05T11:24:36.130Z,27.25
2022-09-05T11:27:24.555Z,27.40
2022-09-05T11:30:27.311Z,27.55
2022-09-05T11:37:56.234Z,27.85
2022-09-05T11:40:04.814Z,27.84
2022-09-05T11:40:07.456Z,28.03
2022-09-05T11:42:27.698Z,27.96
2022-09-05T11:45:34.906Z,27.89
2022-09-05T11:48:33.161Z,27.74
2022-09-05T11:51:15.862Z,27.84
2022-09-05T11:53:43.334Z,27.81
2022-09-05T11:56:45.620Z,27.86
2022-09-05T11:59:37.760Z,27.91
2022-09-05T12:02:49.634Z,28.00
2022-09-05T12:05:47.360Z,28.08
2022-09-05T12:08:46.521Z,28.10
2022-09-05T12:12:08.781Z,28.15
2022-09-05T12:15:20.531Z,28.21
2022-09-05T12:18:19.425Z,28.23
2022-09-05T12:20:58.510Z,28.31
2022-09-05T12:25:15.472Z,28.42
2022-09-05T12:30:00.423Z,28.82
2022-09-05T12:34:46.705Z,28.93
2022-09-05T12:36:10.115Z,29.00
2022-09-05T12:40:59.322Z,29.02
2022-09-05T12:41:41.714Z,28.51
2022-09-05T12:42:12.547Z,28.89
2022-09-05T12:45:11.960Z,28.97
2022-09-05T12:48:14.497Z,28.95
2022-09-05T12:51:46.684Z,28.83
2022-09-05T12:54:32.536Z,28.89
2022-09-05T13:02:55.104Z,29.08
2022-09-05T13:03:05.714Z,29.08
2022-09-05T13:03:37.990Z,29.12
2022-09-05T13:06:10.499Z,28.97
2022-09-05T13:09:03.968Z,29.01
2022-09-05T13:14:56.581Z,29.03
2022-09-05T13:15:08.095Z,29.08
2022-09-05T13:17:50.530Z,29.02
2022-09-05T13:20:36.523Z,28.91
2022-09-05T13:23:46.493Z,28.68
2022-09-05T13:26:27.093Z,28.73
2022-09-05T13:29:13.145Z,28.65
2022-09-05T13:37:53.927Z,28.70
2022-09-05T13:38:13.076Z,28.65
2022-09-05T13:38:17.741Z,28.73
2022-09-05T13:40:51.770Z,28.58
2022-09-05T13:43:27.466Z,28.55
2022-09-05T13:46:20.833Z,28.72
2022-09-05T13:52:26.166Z,28.71
2022-09-05T13:55:52.934Z,28.66
2022-09-05T13:58:45.455Z,28.63
2022-09-05T14:01:49.793Z,28.59
2022-09-05T14:07:54.139Z,28.66
2022-09-05T14:10:40.067Z,28.66
2022-09-05T14:13:14.666Z,28.64
2022-09-05T14:15:59.041Z,28.61
2022-09-05T14:18:55.666Z,28.51
2022-09-05T14:21:28.139Z,28.64
2022-09-05T14:24:21.977Z,28.67
2022-09-05T14:26:59.484Z,28.77
2022-09-05T14:29:37.738Z,28.69
2022-09-05T14:37:40.209Z,28.79
2022-09-05T14:37:45.592Z,28.78
2022-09-05T14:38:39.000Z,28.79
2022-09-05T14:42:07.443Z,28.77
2022-09-05T14:45:31.959Z,28.85
2022-09-05T14:48:53.468Z,28.85
2022-09-05T14:51:46.740Z,28.90
2022-09-05T15:02:51.200Z,28.91
2022-09-05T15:02:55.369Z,28.96
2022-09-05T15:03:04.927Z,28.89
2022-09-05T15:05:45.501Z,28.89
2022-09-05T15:11:24.493Z,28.95
2022-09-05T15:12:16.260Z,28.84
2022-09-05T15:14:08.164Z,28.81
2022-09-05T15:16:43.386Z,28.88
2022-09-05T15:19:12.135Z,28.82
2022-09-05T15:21:41.423Z,28.75
2022-09-05T15:24:29.577Z,28.82
2022-09-05T15:27:00.970Z,28.82
2022-09-05T15:29:36.402Z,28.82
2022-09-05T15:32:26.043Z,28.69
2022-09-05T15:34:58.052Z,28.77
2022-09-05T15:37:31.426Z,28.74
2022-09-05T15:40:22.679Z,28.71
2022-09-05T15:43:02.060Z,28.56
2022-09-05T15:45:37.262Z,28.61
2022-09-05T15:48:15.240Z,28.59
2022-09-05T15:50:53.249Z,28.54
2022-09-05T15:53:34.495Z,28.49
2022-09-05T15:56:11.291Z,28.49
2022-09-05T15:58:54.973Z,28.42
2022-09-05T16:01:59.734Z,28.31
2022-09-05T16:08:32.761Z,28.13
2022-09-05T16:10:38.055Z,28.07
2022-09-05T16:10:39.233Z,27.86
2022-09-05T16:13:17.676Z,27.86
2022-09-05T16:20:43.369Z,27.80
2022-09-05T16:23:26.016Z,27.80
2022-09-05T16:23:29.522Z,27.83
2022-09-05T16:24:41.514Z,27.77
2022-09-05T16:28:06.409Z,27.61
2022-09-05T16:30:39.834Z,27.65
2022-09-05T16:33:29.982Z,27.54
2022-09-05T16:36:29.414Z,27.47
2022-09-05T16:39:10.611Z,27.39
2022-09-05T16:42:00.861Z,27.38
2022-09-05T16:44:35.678Z,27.31
2022-09-05T16:47:52.857Z,27.08
2022-09-05T16:50:25.144Z,27.06
2022-09-05T16:53:30.139Z,26.84
2022-09-05T16:56:10.610Z,26.51
2022-09-05T16:59:22.716Z,26.23
2022-09-05T17:02:21.330Z,26.12
2022-09-05T17:05:27.367Z,25.99
2022-09-05T17:08:07.977Z,25.88
2022-09-05T17:10:57.326Z,25.81
2022-09-05T17:13:49.637Z,25.65
2022-09-05T17:16:33.141Z,25.52
2022-09-05T17:19:02.150Z,25.33
2022-09-05T17:24:16.843Z,25.46
2022-09-05T17:29:19.307Z,25.43
2022-09-05T17:29:34.293Z,25.37
2022-09-05T17:33:01.604Z,25.08
2022-09-05T17:36:06.683Z,24.96
2022-09-05T17:39:12.157Z,25.05
2022-09-05T17:42:07.756Z,24.95
2022-09-05T17:45:16.871Z,24.65
2022-09-05T17:47:56.098Z,24.50
2022-09-05T17:50:27.960Z,24.32
2022-09-05T17:53:26.226Z,24.22
2022-09-05T17:55:55.284Z,24.34
2022-09-05T17:58:41.197Z,24.14
2022-09-05T18:01:26.839Z,24.37
2022-09-05T18:04:16.436Z,24.31
2022-09-05T18:07:00.435Z,24.26
2022-09-05T18:09:38.412Z,24.42
2022-09-05T18:15:32.677Z,24.32
2022-09-05T18:18:24.283Z,24.36
2022-09-05T18:21:21.073Z,24.59
2022-09-05T18:27:11.304Z,24.27
2022-09-05T18:29:57.847Z,24.16
2022-09-05T18:32:53.803Z,23.96
2022-09-05T18:35:37.010Z,24.04
2022-09-05T18:38:50.116Z,23.63
2022-09-05T18:41:24.696Z,23.71
2022-09-05T18:44:12.680Z,23.69
2022-09-05T18:47:01.894Z,23.28
2022-09-05T18:50:21.777Z,22.55
2022-09-05T18:52:41.081Z,22.60
2022-09-05T18:56:11.570Z,22.75
2022-09-05T18:58:28.709Z,22.87
2022-09-05T19:00:57.196Z,22.64
2022-09-05T19:03:31.687Z,22.51
2022-09-05T19:06:37.174Z,22.65
2022-09-05T19:09:03.940Z,22.55
2022-09-05T19:11:53.301Z,22.56
2022-09-05T19:14:45.654Z,22.37
2022-09-05T19:17:37.390Z,22.31
2022-09-05T19:20:32.222Z,22.34
2022-09-05T19:23:12.817Z,22.22
2022-09-05T19:25:46.851Z,21.97
2022-09-05T19:36:36.306Z,22.06
2022-09-05T19:36:52.704Z,22.08
2022-09-05T19:37:09.040Z,22.13
2022-09-05T19:37:29.529Z,22.10
2022-09-05T19:46:21.118Z,22.30
2022-09-05T19:47:28.901Z,22.26
2022-09-05T19:47:51.479Z,22.19
2022-09-05T19:48:35.293Z,22.12
2022-09-05T19:51:17.285Z,21.92
2022-09-05T19:54:04.362Z,21.88
2022-09-05T19:56:44.732Z,21.80
2022-09-05T19:59:40.355Z,21.67
2022-09-05T20:02:37.630Z,21.47
2022-09-05T20:05:09.288Z,21.44
2022-09-05T20:07:56.170Z,21.38
2022-09-05T20:10:35.972Z,21.42
2022-09-05T20:13:24.635Z,21.41
2022-09-05T20:15:53.171Z,21.51
2022-09-05T20:18:37.098Z,21.48
2022-09-05T20:21:14.539Z,21.51
2022-09-05T20:23:49.257Z,21.64
2022-09-05T20:26:24.963Z,21.62
2022-09-05T20:29:04.064Z,21.48
2022-09-05T20:31:35.338Z,21.61
2022-09-05T20:35:40.764Z,21.63
2022-09-05T20:43:16.585Z,21.49
2022-09-05T20:43:17.663Z,21.53
2022-09-05T20:43:25.124Z,21.53
2022-09-05T20:48:12.836Z,21.42
2022-09-05T20:54:08.653Z,21.44
2022-09-05T20:54:15.417Z,21.45
2022-09-05T20:54:41.360Z,21.45
2022-09-05T20:57:22.887Z,21.46
2022-09-05T20:59:50.587Z,21.42
2022-09-05T21:02:33.448Z,21.30
2022-09-05T21:05:20.979Z,21.34
2022-09-05T21:07:59.196Z,21.32
2022-09-05T21:10:55.902Z,21.32
2022-09-05T21:13:28.479Z,21.29
2022-09-05T21:15:57.124Z,21.32
2022-09-05T21:18:34.266Z,21.23
2022-09-05T21:21:27.781Z,21.26
2022-09-05T21:24:18.254Z,21.28
2022-09-05T21:26:48.340Z,21.20
2022-09-05T21:29:27.448Z,21.27
2022-09-05T21:32:03.943Z,21.26
2022-09-05T21:34:47.389Z,21.20
2022-09-05T21:37:17.071Z,21.15
2022-09-05T21:40:00.529Z,21.30
2022-09-05T21:45:25.443Z,21.22
2022-09-05T21:47:46.101Z,21.30
2022-09-05T21:48:16.320Z,21.32
2022-09-05T21:50:51.722Z,21.35
2022-09-05T21:58:52.502Z,21.35
2022-09-05T21:59:16.893Z,21.36
2022-09-05T22:02:08.605Z,21.27
2022-09-05T22:04:41.340Z,21.25
2022-09-05T22:07:31.862Z,21.26
2022-09-05T22:10:06.781Z,21.28
2022-09-05T22:12:38.586Z,21.31
2022-09-05T22:15:27.305Z,21.30
2022-09-05T22:18:16.701Z,21.28
2022-09-05T22:21:02.936Z,21.12
2022-09-05T22:23:38.983Z,21.15
2022-09-05T22:26:06.914Z,21.03
2022-09-05T22:28:38.610Z,21.11
2022-09-05T22:31:07.600Z,21.01
2022-09-05T22:33:36.488Z,21.01
2022-09-05T22:36:04.937Z,21.06
2022-09-05T22:38:33.365Z,21.04
2022-09-05T22:41:01.007Z,21.03
2022-09-05T22:43:33.597Z,20.99
2022-09-05T22:46:01.365Z,20.96
2022-09-05T22:48:29.113Z,20.83
2022-09-05T22:50:57.503Z,20.99
2022-09-05T22:53:25.672Z,20.92
2022-09-05T22:56:04.154Z,20.95
2022-09-05T22:58:42.795Z,20.97
2022-09-05T23:01:11.792Z,20.87
2022-09-05T23:03:39.400Z,20.98
2022-09-05T23:06:09.988Z,20.97
2022-09-05T23:08:37.601Z,20.99
2022-09-05T23:11:11.252Z,20.96
2022-09-05T23:13:40.245Z,20.93
2022-09-05T23:16:08.415Z,21.02
2022-09-05T23:18:36.517Z,21.04
2022-09-05T23:21:11.301Z,21.01
2022-09-05T23:23:41.227Z,21.01
2022-09-05T23:26:12.095Z,20.94
2022-09-05T23:28:43.310Z,20.89
2022-09-05T23:31:12.408Z,20.87
2022-09-05T23:33:42.441Z,20.95
2022-09-05T23:36:15.221Z,20.83
2022-09-05T23:38:43.778Z,20.95
2022-09-05T23:41:14.622Z,20.94
2022-09-05T23:43:42.533Z,20.95
2022-09-05T23:46:10.241Z,20.77
2022-09-05T23:48:37.989Z,20.82
2022-09-05T23:51:13.097Z,20.77
2022-09-05T23:53:41.734Z,20.71
2022-09-05T23:56:10.981Z,20.67
2022-09-05T23:58:39.104Z,20.54
